Portada
METAR-TAF:

METAR-TAF

Aeropuertos :

Alhucemas, Marruecos

Aeropuerto Cherif Al Idrissi

latitud: 35-11N, longitud: 003-51W, altitud: 27 m

Observación

El informe se hizo hace 59 minutos, a las 15:00 UTC
Viento 8 kt del norte
Temperatura 17°C
Humedad 55%
Presión 1006 hPa
Visibilidad 10 km o más
Escasas nubes a una altura de 2000 ft
Nubes dispersas a una altura de 3000 ft

METAR: GMTA 241500Z 36008KT 9999 FEW020 SCT030 17/08 Q1006 NOSIG

Hora: 15:59 (15:59 UTC)

Pronóstico

El informe se hizo hace 4 horas y 59 minutos, a las 11:00 UTC
Pronóstico válido del 24 a las 12 UTC al 25 a las 18 UTC
Viento 6 kt del noroeste
Visibilidad 10 km o más
Escasas nubes a una altura de 2000 ft
Nubes dispersas a una altura de 20000 ft

TAF: GMTA 241100Z 2412/2518 32006KT 9999 FEW020 SCT200

Observaciones y pronósticos meteorológicos de más de 4000 aeropuertos (mensajes METAR y TAF).

Los puntos amarillos y rojos representan las estaciones disponibles.

Ponga el ratón en el punto deseado para ver el nombre de la estación.

Haga clic para ver las observaciones y los pronósticos meteorológicos.

Para cambiar el mapa : haga clic en los botones verdes con una cruz de color negro para hacer un zoom, en el botón verde con un guión para alejar o en las flechas verdes para mapas adyacentes.


METAR-TAF: